createdAt,value
2023-04-09T00:03:21.816Z,21.30
2023-04-09T00:07:22.830Z,23.43
2023-04-09T00:11:23.955Z,14.17
2023-04-09T00:15:31.234Z,14.43
2023-04-09T00:19:27.822Z,12.90
2023-04-09T00:23:28.812Z,15.53
2023-04-09T00:27:29.982Z,16.03
2023-04-09T00:31:31.004Z,13.67
2023-04-09T00:35:32.088Z,13.90
2023-04-09T00:39:33.026Z,13.37
2023-04-09T00:43:34.084Z,11.67
2023-04-09T00:47:36.036Z,11.50
2023-04-09T00:51:38.072Z,12.07
2023-04-09T00:55:40.538Z,13.20
2023-04-09T00:59:42.882Z,10.73
2023-04-09T01:03:44.220Z,13.83
2023-04-09T01:08:01.142Z,12.80
2023-04-09T01:12:25.543Z,12.10
2023-04-09T01:16:30.606Z,11.67
2023-04-09T01:20:40.975Z,12.27
2023-04-09T01:24:48.602Z,11.40
2023-04-09T01:28:55.499Z,12.63
2023-04-09T01:32:58.290Z,12.00
2023-04-09T01:37:02.487Z,11.77
2023-04-09T01:41:04.943Z,13.63
2023-04-09T01:45:07.115Z,12.23
2023-04-09T01:49:10.355Z,12.87
2023-04-09T01:53:11.890Z,11.57
2023-04-09T01:57:13.028Z,12.40
2023-04-09T02:01:18.015Z,13.10
2023-04-09T02:05:22.660Z,13.27
2023-04-09T02:09:24.409Z,12.27
2023-04-09T02:13:27.127Z,13.93
2023-04-09T02:17:28.477Z,14.03
2023-04-09T02:21:29.934Z,11.30
2023-04-09T02:25:31.355Z,12.80
2023-04-09T02:29:32.455Z,12.33
2023-04-09T02:33:33.656Z,16.27
2023-04-09T02:37:34.643Z,11.37
2023-04-09T02:41:35.775Z,11.27
2023-04-09T02:45:36.878Z,11.60
2023-04-09T02:49:38.025Z,12.30
2023-04-09T02:53:40.512Z,13.67
2023-04-09T02:57:41.645Z,12.83
2023-04-09T03:01:42.972Z,13.30
2023-04-09T03:05:44.460Z,14.20
2023-04-09T03:09:45.429Z,12.23
2023-04-09T03:13:46.463Z,13.30
2023-04-09T03:17:47.621Z,13.63
2023-04-09T03:21:50.514Z,11.93
2023-04-09T03:25:58.149Z,14.93
2023-04-09T03:29:59.372Z,12.93
2023-04-09T03:34:00.516Z,12.03
2023-04-09T03:38:01.687Z,16.17
2023-04-09T03:42:02.871Z,13.27
2023-04-09T03:46:15.682Z,12.97
2023-04-09T03:50:17.074Z,14.27
2023-04-09T03:54:18.075Z,12.37
2023-04-09T03:58:19.212Z,13.37
2023-04-09T04:02:20.528Z,13.17
2023-04-09T04:06:21.730Z,14.97
2023-04-09T04:10:22.938Z,16.73
2023-04-09T04:14:24.167Z,14.17
2023-04-09T04:18:25.733Z,17.00
2023-04-09T04:22:26.726Z,13.40
2023-04-09T04:26:27.805Z,16.60
2023-04-09T04:30:28.809Z,14.10
2023-04-09T04:34:29.905Z,14.00
2023-04-09T04:38:31.065Z,14.63
2023-04-09T04:42:32.208Z,13.27
2023-04-09T04:46:33.274Z,13.03
2023-04-09T04:50:34.396Z,12.10
2023-04-09T04:54:35.909Z,13.30
2023-04-09T04:58:37.063Z,14.97
2023-04-09T05:02:38.408Z,13.93
2023-04-09T05:06:39.544Z,16.73
2023-04-09T05:10:43.262Z,13.10
2023-04-09T05:14:44.227Z,14.23
2023-04-09T05:18:45.764Z,15.97
2023-04-09T05:22:46.882Z,19.33
2023-04-09T05:26:47.973Z,15.20
2023-04-09T05:30:49.145Z,17.60
2023-04-09T05:34:50.273Z,18.70
2023-04-09T05:38:51.493Z,17.37
2023-04-09T05:42:52.650Z,17.73
2023-04-09T05:46:53.743Z,16.87
2023-04-09T05:50:55.829Z,17.90
2023-04-09T05:59:00.317Z,14.97
2023-04-09T06:03:01.350Z,15.97
2023-04-09T06:07:02.338Z,15.80
2023-04-09T06:11:03.642Z,15.20
2023-04-09T06:15:05.595Z,17.60
2023-04-09T06:19:06.547Z,16.27
2023-04-09T06:23:07.670Z,14.67
2023-04-09T06:27:08.854Z,14.13
2023-04-09T06:31:09.933Z,16.80
2023-04-09T06:35:11.199Z,15.93
2023-04-09T06:39:12.324Z,15.27
2023-04-09T06:43:13.463Z,15.03
2023-04-09T06:47:14.916Z,16.23
2023-04-09T06:51:16.058Z,18.07
2023-04-09T06:55:17.722Z,19.97
2023-04-09T06:59:18.702Z,21.13
2023-04-09T07:03:20.411Z,20.43
2023-04-09T07:07:23.267Z,19.70
2023-04-09T07:11:24.886Z,19.27
2023-04-09T07:15:26.097Z,21.47
2023-04-09T07:19:27.061Z,20.60
2023-04-09T07:23:28.198Z,20.07
2023-04-09T07:27:29.271Z,22.67
2023-04-09T07:31:30.886Z,24.20
2023-04-09T07:35:33.872Z,21.37
2023-04-09T07:39:35.133Z,21.43
2023-04-09T07:43:36.602Z,22.17
2023-04-09T07:47:39.982Z,21.83
2023-04-09T07:51:41.089Z,22.17
2023-04-09T07:55:42.224Z,21.30
2023-04-09T07:59:43.180Z,22.53
2023-04-09T08:03:44.978Z,22.37
2023-04-09T08:07:46.136Z,21.57
2023-04-09T08:11:48.116Z,23.63
2023-04-09T08:15:49.192Z,22.50
2023-04-09T08:19:50.325Z,23.43
2023-04-09T08:23:51.566Z,23.10
2023-04-09T08:27:52.626Z,21.93
2023-04-09T08:31:53.681Z,20.47
2023-04-09T08:35:54.636Z,22.07
2023-04-09T08:39:55.592Z,19.93
2023-04-09T08:43:59.220Z,19.83
2023-04-09T08:48:03.101Z,19.53
2023-04-09T08:52:04.128Z,21.23
2023-04-09T08:56:05.368Z,21.23
2023-04-09T09:00:08.726Z,20.03
2023-04-09T09:04:10.207Z,21.37
2023-04-09T09:08:14.210Z,19.97
2023-04-09T09:12:21.691Z,18.47
2023-04-09T09:16:22.856Z,20.23
2023-04-09T09:20:25.872Z,21.00
2023-04-09T09:24:27.277Z,19.07
2023-04-09T09:28:32.244Z,19.33
2023-04-09T09:32:33.662Z,18.00
2023-04-09T09:36:34.876Z,19.40
2023-04-09T09:40:36.029Z,18.60
2023-04-09T09:44:37.221Z,17.70
2023-04-09T09:48:39.042Z,18.57
2023-04-09T09:52:43.877Z,18.97
2023-04-09T09:56:45.885Z,18.10
2023-04-09T10:00:48.484Z,18.97
2023-04-09T10:04:51.914Z,17.30
2023-04-09T10:08:57.299Z,18.57
2023-04-09T10:12:59.329Z,18.83
2023-04-09T10:17:00.621Z,19.27
2023-04-09T10:21:09.910Z,19.40
2023-04-09T10:25:11.556Z,18.43
2023-04-09T10:29:14.667Z,16.60
2023-04-09T10:33:19.587Z,17.93
2023-04-09T10:37:25.122Z,17.13
2023-04-09T10:41:28.774Z,16.33
2023-04-09T10:45:41.552Z,19.07
2023-04-09T10:49:42.715Z,16.33
2023-04-09T10:53:43.727Z,15.63
2023-04-09T10:57:45.007Z,14.40
2023-04-09T11:01:53.958Z,16.17
2023-04-09T11:06:05.670Z,14.33
2023-04-09T11:10:07.891Z,16.00
2023-04-09T11:14:08.887Z,16.50
2023-04-09T11:18:16.761Z,16.37
2023-04-09T11:22:18.199Z,14.63
2023-04-09T11:26:35.474Z,12.73
2023-04-09T11:30:36.922Z,13.77
2023-04-09T11:34:37.950Z,15.13
2023-04-09T11:38:39.240Z,12.87
2023-04-09T11:42:40.599Z,12.57
2023-04-09T11:46:42.116Z,12.57
2023-04-09T11:50:43.545Z,12.07
2023-04-09T11:54:50.661Z,12.27
2023-04-09T11:58:54.368Z,8.00
2023-04-09T12:03:03.516Z,9.57
2023-04-09T12:07:10.076Z,10.50
2023-04-09T12:11:12.946Z,12.60
2023-04-09T12:15:21.064Z,11.13
2023-04-09T12:19:24.872Z,11.20
2023-04-09T12:23:26.016Z,10.43
2023-04-09T12:27:27.153Z,12.40
2023-04-09T12:31:28.345Z,13.00
2023-04-09T12:35:29.675Z,14.73
2023-04-09T12:39:32.564Z,13.73
2023-04-09T12:43:33.738Z,14.10
2023-04-09T12:47:34.879Z,14.50
2023-04-09T12:51:36.000Z,13.33
2023-04-09T12:55:37.124Z,11.33
2023-04-09T12:59:38.272Z,13.13
2023-04-09T13:03:40.609Z,11.73
2023-04-09T13:07:43.317Z,13.07
2023-04-09T13:11:44.733Z,12.73
2023-04-09T13:15:45.744Z,14.80
2023-04-09T13:19:46.783Z,13.20
2023-04-09T13:23:47.958Z,14.07
2023-04-09T13:27:48.990Z,10.63
2023-04-09T13:31:50.585Z,11.47
2023-04-09T13:35:51.845Z,11.47
2023-04-09T13:39:52.961Z,12.33
2023-04-09T13:43:54.096Z,11.27
2023-04-09T13:47:55.532Z,11.27
2023-04-09T13:51:57.089Z,11.17
2023-04-09T13:55:58.270Z,15.10
2023-04-09T14:00:01.162Z,11.53
2023-04-09T14:04:02.516Z,11.17
2023-04-09T14:08:03.853Z,13.03
2023-04-09T14:12:04.969Z,12.07
2023-04-09T14:16:07.091Z,12.27
2023-04-09T14:20:08.730Z,10.07
2023-04-09T14:24:10.019Z,10.37
2023-04-09T14:28:11.177Z,11.30
2023-04-09T14:32:12.267Z,10.00
2023-04-09T14:36:13.617Z,10.60
2023-04-09T14:40:14.715Z,10.40
2023-04-09T14:44:15.969Z,10.57
2023-04-09T14:48:17.292Z,10.60
2023-04-09T14:52:18.445Z,9.60
2023-04-09T14:56:19.561Z,9.17
2023-04-09T15:00:21.287Z,10.27
2023-04-09T15:04:23.016Z,10.30
2023-04-09T15:08:24.230Z,10.37
2023-04-09T15:12:30.170Z,11.20
2023-04-09T15:16:34.482Z,10.00
2023-04-09T15:20:36.835Z,9.07
2023-04-09T15:24:37.991Z,8.80
2023-04-09T15:28:40.435Z,8.87
2023-04-09T15:32:41.456Z,9.20
2023-04-09T15:36:44.354Z,9.00
2023-04-09T15:40:45.564Z,10.33
2023-04-09T15:44:48.960Z,8.70
2023-04-09T15:48:50.246Z,8.53
2023-04-09T15:52:51.210Z,7.90
2023-04-09T15:56:52.339Z,8.60
2023-04-09T16:00:53.665Z,8.43
2023-04-09T16:04:54.946Z,8.87
2023-04-09T16:08:56.485Z,9.40
2023-04-09T16:12:57.773Z,7.83
2023-04-09T16:16:58.988Z,8.90
2023-04-09T16:20:59.957Z,9.67
2023-04-09T16:25:00.975Z,9.00
2023-04-09T16:29:03.504Z,8.63
2023-04-09T16:33:04.804Z,7.60
2023-04-09T16:37:06.924Z,8.47
2023-04-09T16:41:08.392Z,8.77
2023-04-09T16:45:10.286Z,9.67
2023-04-09T16:49:11.609Z,8.70
2023-04-09T16:53:12.835Z,7.47
2023-04-09T16:57:14.365Z,8.80
2023-04-09T17:01:15.353Z,9.37
2023-04-09T17:05:17.325Z,8.60
2023-04-09T17:09:18.651Z,9.50
2023-04-09T17:13:20.779Z,10.17
2023-04-09T17:17:21.816Z,10.20
2023-04-09T17:21:23.052Z,9.40
2023-04-09T17:25:24.408Z,9.57
2023-04-09T17:29:25.691Z,9.20
2023-04-09T17:33:26.730Z,8.83
2023-04-09T17:37:28.446Z,9.03
2023-04-09T17:41:30.044Z,9.90
2023-04-09T17:45:31.751Z,8.77
2023-04-09T17:49:33.265Z,9.10
2023-04-09T17:53:34.291Z,12.43
2023-04-09T17:57:35.596Z,10.37
2023-04-09T18:01:36.837Z,10.50
2023-04-09T18:05:38.391Z,10.73
2023-04-09T18:09:40.033Z,12.87
2023-04-09T18:13:41.440Z,12.73
2023-04-09T18:17:42.646Z,13.30
2023-04-09T18:21:43.987Z,12.80
2023-04-09T18:25:45.081Z,11.47
2023-04-09T18:29:46.252Z,9.93
2023-04-09T18:33:47.380Z,10.17
2023-04-09T18:37:48.531Z,9.90
2023-04-09T18:41:49.733Z,16.05
2023-04-09T18:45:52.287Z,14.20
2023-04-09T18:49:53.449Z,13.10
2023-04-09T18:53:54.921Z,12.20
2023-04-09T18:57:56.927Z,17.07
2023-04-09T19:01:58.029Z,15.93
2023-04-09T19:05:59.506Z,18.67
2023-04-09T19:10:00.541Z,13.37
2023-04-09T19:14:03.595Z,12.77
2023-04-09T19:18:04.618Z,10.03
2023-04-09T19:22:06.367Z,11.47
2023-04-09T19:26:09.070Z,10.37
2023-04-09T19:30:11.423Z,9.33
2023-04-09T19:34:12.767Z,10.70
2023-04-09T19:38:14.255Z,10.77
2023-04-09T19:42:15.579Z,12.70
2023-04-09T19:46:16.737Z,11.37
2023-04-09T19:50:18.166Z,15.67
2023-04-09T19:54:19.344Z,23.00
2023-04-09T19:58:20.591Z,23.40
2023-04-09T20:02:23.935Z,18.73
2023-04-09T20:06:25.548Z,15.53
2023-04-09T20:10:26.763Z,14.33
2023-04-09T20:14:27.914Z,13.53
2023-04-09T20:18:28.964Z,14.73
2023-04-09T20:22:30.367Z,16.27
2023-04-09T20:26:31.725Z,17.60
2023-04-09T20:30:33.018Z,16.60
2023-04-09T20:34:34.025Z,19.87
2023-04-09T20:38:35.402Z,17.20
2023-04-09T20:42:37.831Z,17.53
2023-04-09T20:46:38.880Z,20.20
2023-04-09T20:50:40.244Z,18.63
2023-04-09T20:54:42.399Z,19.37
2023-04-09T20:58:43.983Z,16.50
2023-04-09T21:02:45.142Z,21.03
2023-04-09T21:06:47.210Z,19.10
2023-04-09T21:10:48.250Z,19.00
2023-04-09T21:14:49.228Z,12.63
2023-04-09T21:18:51.127Z,13.87
2023-04-09T21:22:53.748Z,14.67
2023-04-09T21:26:55.220Z,70.17
2023-04-09T21:30:57.108Z,65.37
2023-04-09T21:34:58.231Z,39.57
2023-04-09T21:38:59.385Z,37.83
2023-04-09T21:43:00.406Z,31.70
2023-04-09T21:47:03.534Z,34.70
2023-04-09T21:51:10.264Z,30.07
2023-04-09T21:55:11.471Z,22.37
2023-04-09T21:59:12.500Z,22.30
2023-04-09T22:03:13.904Z,21.37
2023-04-09T22:07:15.155Z,25.13
2023-04-09T22:11:16.383Z,23.00
2023-04-09T22:15:19.000Z,22.63
2023-04-09T22:19:19.996Z,21.10
2023-04-09T22:23:21.009Z,19.50
2023-04-09T22:27:22.245Z,20.80
2023-04-09T22:31:23.445Z,22.37
2023-04-09T22:35:24.722Z,24.03
2023-04-09T22:39:26.047Z,21.63
2023-04-09T22:43:27.198Z,21.03
2023-04-09T22:47:28.841Z,23.80
2023-04-09T22:51:30.307Z,20.73
2023-04-09T22:55:31.518Z,20.30
2023-04-09T22:59:40.116Z,23.47
2023-04-09T23:03:35.690Z,22.93
2023-04-09T23:07:36.730Z,21.57
2023-04-09T23:11:37.852Z,22.57
2023-04-09T23:15:40.924Z,19.10
2023-04-09T23:19:42.912Z,15.73
2023-04-09T23:23:44.122Z,19.07
2023-04-09T23:27:46.027Z,20.73
2023-04-09T23:31:47.192Z,18.77
2023-04-09T23:35:48.346Z,21.17
2023-04-09T23:39:49.423Z,19.87
2023-04-09T23:43:50.622Z,20.40
2023-04-09T23:47:52.192Z,18.23
2023-04-09T23:51:53.322Z,16.30
2023-04-09T23:55:54.302Z,16.77
2023-04-09T23:59:56.492Z,19.80
